Portada
METAR-TAF:

METAR-TAF

Aeropuertos :

Rasht, Irán

latitud: 37-12N, longitud: 049-38E, altitud: -7 m

Observación

El informe se hizo hace 5 horas y 8 minutos, a las 15:30 UTC
Viento 4 kt del este-noreste
Temperatura 23°C
Humedad 83%
Presión 1010 hPa
Visibilidad 10 km o más
Escasas nubes a una altura de 2500 ft

METAR: OIGG 211530Z 06004KT 9999 FEW025 23/20 Q1010

Hora: 00:08 (20:38 UTC)

Pronóstico

El informe se hizo hace 28 minutos, a las 20:10 UTC
Pronóstico válido del 21 a las 21 UTC al 22 a las 06 UTC
Viento 6 kt del sur
Visibilidad: 7000 m
Probabilidad 40% :
Temporalmente
del 21 a las 21 UTC al 22 a las 03 UTC
Visibilidad: 4000 m
neblina

TAF: OIGG 212010Z 2121/2206 18006KT 7000 NSC PROB40 TEMPO 2121/2203 4000 BR

Observaciones y pronósticos meteorológicos de más de 4000 aeropuertos (mensajes METAR y TAF).

Los puntos amarillos y rojos representan las estaciones disponibles.

Ponga el ratón en el punto deseado para ver el nombre de la estación.

Haga clic para ver las observaciones y los pronósticos meteorológicos.

Para cambiar el mapa : haga clic en los botones verdes con una cruz de color negro para hacer un zoom, en el botón verde con un guión para alejar o en las flechas verdes para mapas adyacentes.


METAR-TAF: